Time,TemperatureF,DewpointF,PressureIn,WindDirection,WindDirectionDegrees,WindSpeedMPH,WindSpeedGustMPH,Humidity,HourlyPrecipIn,Conditions,Clouds,dailyrainin,SolarRadiationWatts/m^2,SoftwareType,DateUTC
2013-05-13 00:01:00,67.0,23.0,-100.00,WSW,241,4.0,8.0,19,0.00,,,0.00,497.000000,,2013-05-13 00:01:00,
2013-05-13 01:11:00,63.0,25.0,-100.00,NE,54,4.0,6.0,23,-99.99,,,0.00,141.000000,,2013-05-13 01:11:00,
2013-05-13 01:42:00,63.0,25.0,-100.00,NE,54,4.0,6.0,23,-99.99,,,0.00,141.000000,,2013-05-13 01:42:00,
2013-05-13 01:52:00,63.0,25.0,-100.00,NE,54,4.0,6.0,23,-99.99,,,0.00,141.000000,,2013-05-13 01:52:00,
2013-05-13 02:01:00,63.0,25.0,-100.00,NE,54,4.0,6.0,23,-99.99,,,0.00,141.000000,,2013-05-13 02:01:00,
2013-05-13 02:11:00,54.0,24.0,-100.00,NE,42,4.0,6.0,31,0.00,,,0.00,6.000000,,2013-05-13 02:11:00,
2013-05-13 02:32:00,54.0,24.0,-100.00,NE,42,4.0,6.0,31,0.00,,,0.00,6.000000,,2013-05-13 02:32:00,
2013-05-13 02:42:00,54.0,24.0,-100.00,NE,42,4.0,6.0,31,0.00,,,0.00,6.000000,,2013-05-13 02:42:00,
2013-05-13 02:52:00,54.0,24.0,-100.00,NE,42,4.0,6.0,31,0.00,,,0.00,6.000000,,2013-05-13 02:52:00,
2013-05-13 03:02:00,54.0,24.0,-100.00,NE,42,4.0,6.0,31,0.00,,,0.00,6.000000,,2013-05-13 03:02:00,
2013-05-13 03:11:00,52.0,25.0,-100.00,NE,44,4.0,6.0,34,0.00,,,0.00,0.000000,,2013-05-13 03:11:00,
2013-05-13 03:33:00,52.0,25.0,-100.00,NE,44,4.0,6.0,34,0.00,,,0.00,0.000000,,2013-05-13 03:33:00,
2013-05-13 03:42:00,52.0,25.0,-100.00,NE,44,4.0,6.0,34,0.00,,,0.00,0.000000,,2013-05-13 03:42:00,
2013-05-13 03:53:00,52.0,25.0,-100.00,NE,44,4.0,6.0,34,0.00,,,0.00,0.000000,,2013-05-13 03:53:00,
2013-05-13 04:02:00,52.0,25.0,-100.00,NE,44,4.0,6.0,34,0.00,,,0.00,0.000000,,2013-05-13 04:02:00,
2013-05-13 04:11:00,52.0,24.0,-100.00,ENE,67,5.0,9.0,33,0.00,,,0.00,0.000000,,2013-05-13 04:11:00,
2013-05-13 04:33:00,52.0,24.0,-100.00,ENE,67,5.0,9.0,33,0.00,,,0.00,0.000000,,2013-05-13 04:33:00,
2013-05-13 04:42:00,52.0,24.0,-100.00,ENE,67,5.0,9.0,33,0.00,,,0.00,0.000000,,2013-05-13 04:42:00,
2013-05-13 04:53:00,52.0,24.0,-100.00,ENE,67,5.0,9.0,33,0.00,,,0.00,0.000000,,2013-05-13 04:53:00,
2013-05-13 05:02:00,52.0,24.0,-100.00,ENE,67,5.0,9.0,33,0.00,,,0.00,0.000000,,2013-05-13 05:02:00,
2013-05-13 05:11:00,52.0,23.0,-100.00,South,171,3.0,9.0,32,0.00,,,0.00,0.000000,,2013-05-13 05:11:00,
2013-05-13 05:42:00,52.0,23.0,-100.00,South,171,3.0,9.0,32,0.00,,,0.00,0.000000,,2013-05-13 05:42:00,
2013-05-13 05:52:00,52.0,23.0,-100.00,South,171,3.0,9.0,32,0.00,,,0.00,0.000000,,2013-05-13 05:52:00,
2013-05-13 06:01:00,52.0,23.0,-100.00,South,171,3.0,9.0,32,0.00,,,0.00,0.000000,,2013-05-13 06:01:00,
2013-05-13 06:11:00,52.0,23.0,-100.00,SE,135,4.0,7.0,32,0.00,,,0.00,0.000000,,2013-05-13 06:11:00,
2013-05-13 06:42:00,52.0,23.0,-100.00,SE,135,4.0,7.0,32,0.00,,,0.00,0.000000,,2013-05-13 06:42:00,
2013-05-13 06:52:00,52.0,23.0,-100.00,SE,135,4.0,7.0,32,0.00,,,0.00,0.000000,,2013-05-13 06:52:00,
2013-05-13 07:01:00,52.0,23.0,-100.00,SE,135,4.0,7.0,32,0.00,,,0.00,0.000000,,2013-05-13 07:01:00,
2013-05-13 07:11:00,52.0,23.0,-100.00,SE,130,5.0,7.0,32,0.00,,,-99.99,0.000000,,2013-05-13 07:11:00,
2013-05-13 07:42:00,52.0,23.0,-100.00,SE,130,5.0,7.0,32,0.00,,,-99.99,0.000000,,2013-05-13 07:42:00,
2013-05-13 07:52:00,52.0,23.0,-100.00,SE,130,5.0,7.0,32,0.00,,,-99.99,0.000000,,2013-05-13 07:52:00,
2013-05-13 08:02:00,52.0,23.0,-100.00,SE,130,5.0,7.0,32,0.00,,,-99.99,0.000000,,2013-05-13 08:02:00,
2013-05-13 08:11:00,53.0,23.0,-100.00,SE,145,5.0,10.0,31,0.00,,,0.00,0.000000,,2013-05-13 08:11:00,
2013-05-13 08:42:00,53.0,23.0,-100.00,SE,145,5.0,10.0,31,0.00,,,0.00,0.000000,,2013-05-13 08:42:00,
2013-05-13 08:52:00,53.0,23.0,-100.00,SE,145,5.0,10.0,31,0.00,,,0.00,0.000000,,2013-05-13 08:52:00,
2013-05-13 09:01:00,53.0,23.0,-100.00,SE,145,5.0,10.0,31,0.00,,,0.00,0.000000,,2013-05-13 09:01:00,
2013-05-13 09:11:00,53.0,25.0,-100.00,SE,135,7.0,12.0,33,0.00,,,0.00,0.000000,,2013-05-13 09:11:00,
2013-05-13 09:33:00,53.0,25.0,-100.00,SE,135,7.0,12.0,33,0.00,,,0.00,0.000000,,2013-05-13 09:33:00,
2013-05-13 09:42:00,53.0,25.0,-100.00,SE,135,7.0,12.0,33,0.00,,,0.00,0.000000,,2013-05-13 09:42:00,
2013-05-13 09:52:00,53.0,25.0,-100.00,SE,135,7.0,12.0,33,0.00,,,0.00,0.000000,,2013-05-13 09:52:00,
2013-05-13 10:03:00,53.0,25.0,-100.00,SE,135,7.0,12.0,33,0.00,,,0.00,0.000000,,2013-05-13 10:03:00,
2013-05-13 10:11:00,51.0,26.0,-100.00,SE,140,4.0,12.0,37,0.00,,,0.00,0.000000,,2013-05-13 10:11:00,
2013-05-13 10:33:00,51.0,26.0,-100.00,SE,140,4.0,12.0,37,0.00,,,0.00,0.000000,,2013-05-13 10:33:00,
2013-05-13 10:43:00,51.0,26.0,-100.00,SE,140,4.0,12.0,37,0.00,,,0.00,0.000000,,2013-05-13 10:43:00,
2013-05-13 10:52:00,51.0,26.0,-100.00,SE,140,4.0,12.0,37,0.00,,,0.00,0.000000,,2013-05-13 10:52:00,
2013-05-13 11:02:00,51.0,26.0,-100.00,SE,140,4.0,12.0,37,0.00,,,0.00,0.000000,,2013-05-13 11:02:00,
2013-05-13 11:11:00,52.0,30.0,-100.00,SE,142,6.0,11.0,43,0.00,,,0.00,1.000000,,2013-05-13 11:11:00,
2013-05-13 11:32:00,52.0,30.0,-100.00,SE,142,6.0,11.0,43,0.00,,,0.00,1.000000,,2013-05-13 11:32:00,
2013-05-13 11:42:00,52.0,30.0,-100.00,SE,142,6.0,11.0,43,0.00,,,0.00,1.000000,,2013-05-13 11:42:00,
2013-05-13 11:52:00,52.0,30.0,-100.00,SE,142,6.0,11.0,43,0.00,,,0.00,1.000000,,2013-05-13 11:52:00,
2013-05-13 12:01:00,52.0,30.0,-100.00,SE,142,6.0,11.0,43,0.00,,,0.00,1.000000,,2013-05-13 12:01:00,
2013-05-13 12:11:00,51.0,34.0,-100.00,SSE,167,3.0,10.0,52,0.00,,,-99.99,31.000000,,2013-05-13 12:11:00,
2013-05-13 12:42:00,51.0,34.0,-100.00,SSE,167,3.0,10.0,52,0.00,,,-99.99,31.000000,,2013-05-13 12:42:00,
2013-05-13 12:52:00,51.0,34.0,-100.00,SSE,167,3.0,10.0,52,0.00,,,-99.99,31.000000,,2013-05-13 12:52:00,
2013-05-13 13:01:00,51.0,34.0,-100.00,SSE,167,3.0,10.0,52,0.00,,,-99.99,31.000000,,2013-05-13 13:01:00,
2013-05-13 13:11:00,54.0,38.0,-100.00,SSE,165,3.0,10.0,54,0.00,,,0.00,102.000000,,2013-05-13 13:11:00,
2013-05-13 13:32:00,54.0,38.0,-100.00,SSE,165,3.0,10.0,54,0.00,,,0.00,102.000000,,2013-05-13 13:32:00,
2013-05-13 13:42:00,54.0,38.0,-100.00,SSE,165,3.0,10.0,54,0.00,,,0.00,102.000000,,2013-05-13 13:42:00,
2013-05-13 13:52:00,54.0,38.0,-100.00,SSE,165,3.0,10.0,54,0.00,,,0.00,102.000000,,2013-05-13 13:52:00,
2013-05-13 14:02:00,54.0,38.0,-100.00,SSE,165,3.0,10.0,54,0.00,,,0.00,102.000000,,2013-05-13 14:02:00,
2013-05-13 14:11:00,58.0,41.0,-100.00,South,171,5.0,11.0,54,0.00,,,0.00,229.000000,,2013-05-13 14:11:00,
2013-05-13 14:42:00,58.0,41.0,-100.00,South,171,5.0,11.0,54,0.00,,,0.00,229.000000,,2013-05-13 14:42:00,
2013-05-13 14:52:00,58.0,41.0,-100.00,South,171,5.0,11.0,54,0.00,,,0.00,229.000000,,2013-05-13 14:52:00,
2013-05-13 15:01:00,58.0,41.0,-100.00,South,171,5.0,11.0,54,0.00,,,0.00,229.000000,,2013-05-13 15:01:00,
2013-05-13 15:11:00,64.0,44.0,-100.00,South,184,9.0,18.0,49,0.00,,,0.00,417.000000,,2013-05-13 15:11:00,
2013-05-13 15:42:00,64.0,44.0,-100.00,South,184,9.0,18.0,49,0.00,,,0.00,417.000000,,2013-05-13 15:42:00,
2013-05-13 15:53:00,64.0,44.0,-100.00,South,184,9.0,18.0,49,0.00,,,0.00,417.000000,,2013-05-13 15:53:00,
2013-05-13 16:03:00,64.0,44.0,-100.00,South,184,9.0,18.0,49,0.00,,,0.00,417.000000,,2013-05-13 16:03:00,
2013-05-13 16:11:00,71.0,47.0,-100.00,South,178,8.0,19.0,43,0.00,,,0.00,501.000000,,2013-05-13 16:11:00,
2013-05-13 16:34:00,71.0,47.0,-100.00,South,178,8.0,19.0,43,0.00,,,0.00,501.000000,,2013-05-13 16:34:00,
2013-05-13 16:43:00,71.0,47.0,-100.00,South,178,8.0,19.0,43,0.00,,,0.00,501.000000,,2013-05-13 16:43:00,
2013-05-13 16:53:00,71.0,47.0,-100.00,South,178,8.0,19.0,43,0.00,,,0.00,501.000000,,2013-05-13 16:53:00,
2013-05-13 17:02:00,71.0,47.0,-100.00,South,178,8.0,19.0,43,0.00,,,0.00,501.000000,,2013-05-13 17:02:00,
2013-05-13 17:11:00,76.0,49.0,-100.00,South,177,7.0,21.0,38,0.00,,,0.00,700.000000,,2013-05-13 17:11:00,
2013-05-13 17:32:00,76.0,49.0,-100.00,South,177,7.0,21.0,38,0.00,,,0.00,700.000000,,2013-05-13 17:32:00,
2013-05-13 17:42:00,76.0,49.0,-100.00,South,177,7.0,21.0,38,0.00,,,0.00,700.000000,,2013-05-13 17:42:00,
2013-05-13 17:54:00,76.0,49.0,-100.00,South,177,7.0,21.0,38,0.00,,,0.00,700.000000,,2013-05-13 17:54:00,
2013-05-13 18:03:00,76.0,49.0,-100.00,South,177,7.0,21.0,38,0.00,,,0.00,700.000000,,2013-05-13 18:03:00,
2013-05-13 19:11:00,83.0,47.0,-100.00,SSW,206,22.0,30.0,29,-99.99,,,0.00,705.000000,,2013-05-13 19:11:00,
2013-05-13 19:32:00,83.0,47.0,-100.00,SSW,206,22.0,30.0,29,-99.99,,,0.00,705.000000,,2013-05-13 19:32:00,
2013-05-13 19:44:00,83.0,47.0,-100.00,SSW,206,22.0,30.0,29,-99.99,,,0.00,705.000000,,2013-05-13 19:44:00,
2013-05-13 19:53:00,83.0,47.0,-100.00,SSW,206,22.0,30.0,29,-99.99,,,0.00,705.000000,,2013-05-13 19:53:00,
2013-05-13 20:01:00,83.0,47.0,-100.00,SSW,206,22.0,30.0,29,-99.99,,,0.00,705.000000,,2013-05-13 20:01:00,
2013-05-13 20:11:00,86.0,45.0,-100.00,SSW,211,20.0,29.0,24,0.00,,,0.00,616.000000,,2013-05-13 20:11:00,
2013-05-13 20:34:00,86.0,45.0,-100.00,SSW,211,20.0,29.0,24,0.00,,,0.00,616.000000,,2013-05-13 20:34:00,
2013-05-13 20:44:00,86.0,45.0,-100.00,SSW,211,20.0,29.0,24,0.00,,,0.00,616.000000,,2013-05-13 20:44:00,
2013-05-13 20:53:00,86.0,45.0,-100.00,SSW,211,20.0,29.0,24,0.00,,,0.00,616.000000,,2013-05-13 20:53:00,
2013-05-13 21:03:00,86.0,45.0,-100.00,SSW,211,20.0,29.0,24,0.00,,,0.00,616.000000,,2013-05-13 21:03:00,
2013-05-13 21:11:00,88.0,46.0,-100.00,SSW,209,20.0,30.0,23,0.00,,,0.00,503.000000,,2013-05-13 21:11:00,
2013-05-13 21:44:00,88.0,46.0,-100.00,SSW,209,20.0,30.0,23,0.00,,,0.00,503.000000,,2013-05-13 21:44:00,
2013-05-13 21:53:00,88.0,46.0,-100.00,SSW,209,20.0,30.0,23,0.00,,,0.00,503.000000,,2013-05-13 21:53:00,
2013-05-13 22:02:00,88.0,46.0,-100.00,SSW,209,20.0,30.0,23,0.00,,,0.00,503.000000,,2013-05-13 22:02:00,
2013-05-13 22:11:00,89.0,49.0,-100.00,SW,218,17.0,25.0,25,0.00,,,0.00,380.000000,,2013-05-13 22:11:00,
2013-05-13 22:43:00,89.0,49.0,-100.00,SW,218,17.0,25.0,25,0.00,,,0.00,380.000000,,2013-05-13 22:43:00,
2013-05-13 22:52:00,89.0,49.0,-100.00,SW,218,17.0,25.0,25,0.00,,,0.00,380.000000,,2013-05-13 22:52:00,
2013-05-13 23:02:00,89.0,49.0,-100.00,SW,218,17.0,25.0,25,0.00,,,0.00,380.000000,,2013-05-13 23:02:00,
2013-05-13 23:11:00,89.0,50.0,-100.00,SSW,207,14.0,22.0,26,0.00,,,0.00,318.000000,,2013-05-13 23:11:00,
2013-05-13 23:42:00,89.0,50.0,-100.00,SSW,207,14.0,22.0,26,0.00,,,0.00,318.000000,,2013-05-13 23:42:00,
2013-05-13 23:54:00,89.0,50.0,-100.00,SSW,207,14.0,22.0,26,0.00,,,0.00,318.000000,,2013-05-13 23:54:00,